createdAt,value
2022-11-22T00:00:55.788Z,2.03
2022-11-22T00:03:23.815Z,1.92
2022-11-22T00:05:51.716Z,2.42
2022-11-22T00:08:19.613Z,2.38
2022-11-22T00:10:49.624Z,2.92
2022-11-22T00:13:19.603Z,2.00
2022-11-22T00:15:58.028Z,1.70
2022-11-22T00:18:26.001Z,1.90
2022-11-22T00:20:53.875Z,1.58
2022-11-22T00:23:21.878Z,1.90
2022-11-22T00:25:49.812Z,1.80
2022-11-22T00:28:19.144Z,1.75
2022-11-22T00:30:47.041Z,2.00
2022-11-22T00:33:14.943Z,1.55
2022-11-22T00:35:42.779Z,1.83
2022-11-22T00:38:10.757Z,1.67
2022-11-22T00:40:38.648Z,1.27
2022-11-22T00:43:06.577Z,1.70
2022-11-22T00:45:35.844Z,1.55
2022-11-22T00:48:03.766Z,1.85
2022-11-22T00:50:31.635Z,1.67
2022-11-22T00:52:59.518Z,1.48
2022-11-22T00:55:27.452Z,1.88
2022-11-22T00:57:55.335Z,1.88
2022-11-22T01:00:23.451Z,2.00
2022-11-22T01:02:52.674Z,1.75
2022-11-22T01:05:20.555Z,1.48
2022-11-22T01:07:48.632Z,1.70
2022-11-22T01:10:16.825Z,1.67
2022-11-22T01:12:44.686Z,1.80
2022-11-22T01:15:13.299Z,1.63
2022-11-22T01:17:41.309Z,1.58
2022-11-22T01:20:11.535Z,1.77
2022-11-22T01:22:39.431Z,1.63
2022-11-22T01:25:08.758Z,1.40
2022-11-22T01:27:36.793Z,1.70
2022-11-22T01:30:05.956Z,1.65
2022-11-22T01:32:33.911Z,1.50
2022-11-22T01:35:01.872Z,1.40
2022-11-22T01:37:31.145Z,1.88
2022-11-22T01:39:59.035Z,1.50
2022-11-22T01:42:43.003Z,1.50
2022-11-22T01:45:42.359Z,1.40
2022-11-22T01:48:34.987Z,1.63
2022-11-22T01:51:06.745Z,1.70
2022-11-22T01:53:38.532Z,1.73
2022-11-22T01:56:10.237Z,1.52
2022-11-22T01:58:40.649Z,1.35
2022-11-22T02:01:08.901Z,1.50
2022-11-22T02:03:40.383Z,1.70
2022-11-22T02:06:09.172Z,1.60
2022-11-22T02:08:45.998Z,1.42
2022-11-22T02:11:15.586Z,1.70
2022-11-22T02:13:45.271Z,2.22
2022-11-22T02:16:13.817Z,1.92
2022-11-22T02:18:41.928Z,1.85
2022-11-22T02:21:10.148Z,2.13
2022-11-22T02:23:47.979Z,2.28
2022-11-22T02:26:17.516Z,1.90
2022-11-22T02:28:45.913Z,2.30
2022-11-22T02:31:36.173Z,2.00
2022-11-22T02:34:04.161Z,2.10
2022-11-22T02:36:36.216Z,2.40
2022-11-22T02:39:04.788Z,2.03
2022-11-22T02:41:34.828Z,2.05
2022-11-22T02:44:02.992Z,2.13
2022-11-22T02:46:30.900Z,2.22
2022-11-22T02:48:59.002Z,2.10
2022-11-22T02:51:26.914Z,2.13
2022-11-22T02:53:56.833Z,2.00
2022-11-22T02:56:24.824Z,2.47
2022-11-22T02:58:54.065Z,2.10
2022-11-22T03:01:22.137Z,2.35
2022-11-22T03:03:50.134Z,2.35
2022-11-22T03:06:18.012Z,2.72
2022-11-22T03:08:53.178Z,2.22
2022-11-22T03:11:23.998Z,2.20
2022-11-22T03:13:52.074Z,2.42
2022-11-22T03:16:21.359Z,2.38
2022-11-22T03:18:49.213Z,2.53
2022-11-22T03:21:17.094Z,2.28
2022-11-22T03:23:45.098Z,2.55
2022-11-22T03:26:13.495Z,2.65
2022-11-22T03:28:41.436Z,2.40
2022-11-22T03:31:09.675Z,2.50
2022-11-22T03:33:38.987Z,2.42
2022-11-22T03:36:06.943Z,2.60
2022-11-22T03:38:35.999Z,2.30
2022-11-22T03:41:03.990Z,2.50
2022-11-22T03:43:31.998Z,2.15
2022-11-22T03:45:59.945Z,2.03
2022-11-22T03:48:27.895Z,2.28
2022-11-22T03:51:04.443Z,2.40
2022-11-22T03:53:32.771Z,2.20
2022-11-22T03:56:00.817Z,2.53
2022-11-22T03:58:28.724Z,2.40
2022-11-22T04:00:57.175Z,2.40
2022-11-22T04:03:25.752Z,2.50
2022-11-22T04:05:53.896Z,2.17
2022-11-22T04:08:23.207Z,2.70
2022-11-22T04:10:51.509Z,2.72
2022-11-22T04:13:19.785Z,2.30
2022-11-22T04:15:46.800Z,2.47
2022-11-22T04:18:15.773Z,2.53
2022-11-22T04:21:01.201Z,2.35
2022-11-22T04:23:34.065Z,2.58
2022-11-22T04:26:01.550Z,2.60
2022-11-22T04:28:54.038Z,2.42
2022-11-22T04:31:34.738Z,2.45
2022-11-22T04:34:02.681Z,2.65
2022-11-22T04:36:30.531Z,2.45
2022-11-22T04:38:59.785Z,2.70
2022-11-22T04:41:27.773Z,2.85
2022-11-22T04:44:12.917Z,2.63
2022-11-22T04:46:40.890Z,2.40
2022-11-22T04:49:08.780Z,2.63
2022-11-22T04:51:54.095Z,2.47
2022-11-22T04:54:23.352Z,2.35
2022-11-22T04:56:51.281Z,2.55
2022-11-22T04:59:19.177Z,2.63
2022-11-22T05:01:47.220Z,2.03
2022-11-22T05:04:15.100Z,2.70
2022-11-22T05:06:42.979Z,2.03
2022-11-22T05:09:10.857Z,2.47
2022-11-22T05:11:40.210Z,2.30
2022-11-22T05:14:08.083Z,2.55
2022-11-22T05:16:36.016Z,2.50
2022-11-22T05:19:03.980Z,2.30
2022-11-22T05:21:33.288Z,2.40
2022-11-22T05:24:00.202Z,2.55
2022-11-22T05:26:29.664Z,2.22
2022-11-22T05:28:59.579Z,2.50
2022-11-22T05:31:28.342Z,2.35
2022-11-22T05:33:57.782Z,2.78
2022-11-22T05:36:26.114Z,2.40
2022-11-22T05:38:55.018Z,2.50
2022-11-22T05:41:22.889Z,2.15
2022-11-22T05:43:50.752Z,2.83
2022-11-22T05:46:24.722Z,2.20
2022-11-22T05:48:54.384Z,2.40
2022-11-22T05:51:24.678Z,2.70
2022-11-22T05:53:53.912Z,3.22
2022-11-22T05:56:24.006Z,2.35
2022-11-22T05:58:52.603Z,2.50
2022-11-22T06:01:23.600Z,2.97
2022-11-22T06:03:52.419Z,2.45
2022-11-22T06:06:20.631Z,3.15
2022-11-22T06:08:48.991Z,2.45
2022-11-22T06:11:19.531Z,2.33
2022-11-22T06:13:49.872Z,2.95
2022-11-22T06:16:18.636Z,2.40
2022-11-22T06:18:48.424Z,2.30
2022-11-22T06:21:18.397Z,2.60
2022-11-22T06:23:46.683Z,3.03
2022-11-22T06:26:16.963Z,2.40
2022-11-22T06:28:46.096Z,2.35
2022-11-22T06:31:15.996Z,2.72
2022-11-22T06:33:45.038Z,2.95
2022-11-22T06:36:16.062Z,2.72
2022-11-22T06:38:45.008Z,2.40
2022-11-22T06:41:14.780Z,2.28
2022-11-22T06:43:48.684Z,2.95
2022-11-22T06:46:18.443Z,2.63
2022-11-22T06:48:46.959Z,2.50
2022-11-22T06:51:18.069Z,2.60
2022-11-22T06:53:48.510Z,2.88
2022-11-22T06:56:18.760Z,3.00
2022-11-22T06:58:47.564Z,2.95
2022-11-22T07:01:17.217Z,2.97
2022-11-22T07:03:45.751Z,3.17
2022-11-22T07:06:16.951Z,3.25
2022-11-22T07:08:45.597Z,3.20
2022-11-22T07:11:14.927Z,2.85
2022-11-22T07:13:43.464Z,3.17
2022-11-22T07:16:13.706Z,2.88
2022-11-22T07:18:42.116Z,2.80
2022-11-22T07:21:13.654Z,2.97
2022-11-22T07:23:45.185Z,2.92
2022-11-22T07:26:14.603Z,2.97
2022-11-22T07:28:43.179Z,2.80
2022-11-22T07:31:13.412Z,3.63
2022-11-22T07:33:41.835Z,3.05
2022-11-22T07:36:11.655Z,2.80
2022-11-22T07:38:39.926Z,3.10
2022-11-22T07:41:09.950Z,3.20
2022-11-22T07:43:37.962Z,2.63
2022-11-22T07:46:08.144Z,2.30
2022-11-22T07:48:36.194Z,2.30
2022-11-22T07:51:06.555Z,2.53
2022-11-22T07:53:35.863Z,2.28
2022-11-22T07:56:04.228Z,3.00
2022-11-22T07:58:34.381Z,2.33
2022-11-22T08:01:07.220Z,2.10
2022-11-22T08:03:35.926Z,2.70
2022-11-22T08:06:06.152Z,2.35
2022-11-22T08:08:34.591Z,2.30
2022-11-22T08:11:02.632Z,2.28
2022-11-22T08:13:31.408Z,2.50
2022-11-22T08:16:05.837Z,2.58
2022-11-22T08:18:34.926Z,2.67
2022-11-22T08:21:04.605Z,2.28
2022-11-22T08:23:32.563Z,2.53
2022-11-22T08:26:01.102Z,2.20
2022-11-22T08:28:29.194Z,2.17
2022-11-22T08:31:01.840Z,2.40
2022-11-22T08:33:31.288Z,2.47
2022-11-22T08:35:59.196Z,2.72
2022-11-22T08:38:27.543Z,2.13
2022-11-22T08:40:55.803Z,2.00
2022-11-22T08:43:23.896Z,2.20
2022-11-22T08:45:55.487Z,2.08
2022-11-22T08:48:23.440Z,2.40
2022-11-22T08:50:54.603Z,2.45
2022-11-22T08:53:23.379Z,2.83
2022-11-22T08:55:51.730Z,2.38
2022-11-22T08:58:19.831Z,2.70
2022-11-22T09:00:48.076Z,2.70
2022-11-22T09:03:15.960Z,2.40
2022-11-22T09:08:36.207Z,2.65
2022-11-22T09:11:08.247Z,2.50
2022-11-22T09:13:36.603Z,3.00
2022-11-22T09:16:05.923Z,3.10
2022-11-22T09:18:34.368Z,2.17
2022-11-22T09:21:03.918Z,2.40
2022-11-22T09:23:33.569Z,2.40
2022-11-22T09:26:03.761Z,2.80
2022-11-22T09:28:32.139Z,2.45
2022-11-22T09:31:01.514Z,2.90
2022-11-22T09:33:29.446Z,2.33
2022-11-22T09:36:01.899Z,2.60
2022-11-22T09:38:30.527Z,3.05
2022-11-22T09:41:00.635Z,2.60
2022-11-22T09:43:40.788Z,2.60
2022-11-22T09:46:33.490Z,2.28
2022-11-22T09:49:26.970Z,2.35
2022-11-22T09:52:03.236Z,2.25
2022-11-22T09:54:40.575Z,2.90
2022-11-22T09:57:18.120Z,2.50
2022-11-22T09:59:48.665Z,2.58
2022-11-22T10:02:24.019Z,2.38
2022-11-22T10:04:57.362Z,2.53
2022-11-22T10:07:31.395Z,3.67
2022-11-22T10:10:05.665Z,5.35
2022-11-22T10:12:42.173Z,4.60
2022-11-22T10:15:30.511Z,4.93
2022-11-22T10:18:02.229Z,7.13
2022-11-22T10:20:32.575Z,8.68
2022-11-22T10:23:00.966Z,7.95
2022-11-22T10:25:39.230Z,8.25
2022-11-22T10:28:18.794Z,7.45
2022-11-22T10:30:56.915Z,7.47
2022-11-22T10:33:31.699Z,6.75
2022-11-22T10:36:17.151Z,6.95
2022-11-22T10:39:30.094Z,6.15
2022-11-22T10:42:21.336Z,5.20
2022-11-22T10:45:01.899Z,5.57
2022-11-22T10:47:43.776Z,5.15
2022-11-22T10:50:17.767Z,5.32
2022-11-22T10:52:55.988Z,5.18
2022-11-22T10:55:41.135Z,5.15
2022-11-22T10:58:18.935Z,4.30
2022-11-22T11:00:51.897Z,4.22
2022-11-22T11:03:27.365Z,4.47
2022-11-22T11:06:21.755Z,4.65
2022-11-22T11:09:47.704Z,4.25
2022-11-22T11:11:43.916Z,3.85
2022-11-22T11:14:20.333Z,3.70
2022-11-22T11:16:50.639Z,3.75
2022-11-22T11:19:20.484Z,3.17
2022-11-22T11:21:58.751Z,4.05
2022-11-22T11:24:30.626Z,3.78
2022-11-22T11:27:01.589Z,3.38
2022-11-22T11:29:39.620Z,3.05
2022-11-22T11:32:14.463Z,3.40
2022-11-22T11:34:50.039Z,3.40
2022-11-22T11:37:24.149Z,3.80
2022-11-22T11:39:52.087Z,3.25
2022-11-22T11:42:26.044Z,2.72
2022-11-22T11:44:54.117Z,3.25
2022-11-22T11:47:34.047Z,3.13
2022-11-22T11:50:02.081Z,2.80
2022-11-22T11:52:31.666Z,2.47
2022-11-22T11:55:02.880Z,2.88
2022-11-22T11:57:34.747Z,2.90
2022-11-22T12:00:05.839Z,2.33
2022-11-22T12:02:41.259Z,2.70
2022-11-22T12:05:27.574Z,2.22
2022-11-22T12:07:55.875Z,2.28
2022-11-22T12:10:40.273Z,2.78
2022-11-22T12:13:19.119Z,2.85
2022-11-22T12:15:56.230Z,2.58
2022-11-22T12:18:39.488Z,2.60
2022-11-22T12:21:19.956Z,2.78
2022-11-22T12:24:19.582Z,2.22
2022-11-22T12:26:45.353Z,2.58
2022-11-22T12:29:14.084Z,2.33
2022-11-22T12:31:46.607Z,2.50
2022-11-22T12:34:23.702Z,2.67
2022-11-22T12:36:55.431Z,2.40
2022-11-22T12:39:27.732Z,2.20
2022-11-22T12:42:00.868Z,2.63
2022-11-22T12:44:33.896Z,2.70
2022-11-22T12:47:08.279Z,2.47
2022-11-22T12:49:43.139Z,2.03
2022-11-22T12:52:24.186Z,2.40
2022-11-22T12:55:00.618Z,2.03
2022-11-22T12:57:36.804Z,2.50
2022-11-22T13:00:07.493Z,2.20
2022-11-22T13:02:39.959Z,1.60
2022-11-22T13:05:14.566Z,1.60
2022-11-22T13:07:56.645Z,1.65
2022-11-22T13:10:34.079Z,1.90
2022-11-22T13:13:05.588Z,1.88
2022-11-22T13:15:38.332Z,1.85
2022-11-22T13:18:10.842Z,2.08
2022-11-22T13:20:46.211Z,1.50
2022-11-22T13:23:30.565Z,1.58
2022-11-22T13:26:13.264Z,1.45
2022-11-22T13:28:44.271Z,1.55
2022-11-22T13:31:18.680Z,1.60
2022-11-22T13:33:56.235Z,1.95
2022-11-22T13:36:39.154Z,1.80
2022-11-22T13:39:17.217Z,2.00
2022-11-22T13:42:01.505Z,1.90
2022-11-22T13:44:39.313Z,2.10
2022-11-22T13:47:38.810Z,1.80
2022-11-22T13:50:57.668Z,1.73
2022-11-22T13:53:30.150Z,1.60
2022-11-22T13:56:09.796Z,2.00
2022-11-22T13:58:54.611Z,1.80
2022-11-22T14:01:57.549Z,1.88
2022-11-22T14:04:43.535Z,2.00
2022-11-22T14:07:35.550Z,1.70
2022-11-22T14:10:24.863Z,1.40
2022-11-22T14:13:21.348Z,1.90
2022-11-22T14:15:56.516Z,1.98
2022-11-22T14:18:47.376Z,1.80
2022-11-22T14:21:23.080Z,1.75
2022-11-22T14:24:02.924Z,1.77
2022-11-22T14:26:48.412Z,1.90
2022-11-22T14:29:55.908Z,2.03
2022-11-22T14:32:25.487Z,2.30
2022-11-22T14:35:26.349Z,2.00
2022-11-22T14:38:38.824Z,1.92
2022-11-22T14:41:45.813Z,1.73
2022-11-22T14:44:17.779Z,1.85
2022-11-22T14:46:53.878Z,1.60
2022-11-22T14:49:32.754Z,2.22
2022-11-22T14:52:01.644Z,1.80
2022-11-22T14:54:34.822Z,1.80
2022-11-22T14:57:08.493Z,1.73
2022-11-22T15:00:05.581Z,2.08
2022-11-22T15:03:13.421Z,1.58
2022-11-22T15:09:21.461Z,1.85
2022-11-22T15:09:22.951Z,1.60
2022-11-22T15:12:00.838Z,1.92
2022-11-22T15:59:04.633Z,2.80
2022-11-22T16:01:32.603Z,3.25
2022-11-22T16:04:02.058Z,3.05
2022-11-22T16:06:31.946Z,3.05
2022-11-22T16:09:01.056Z,2.90
2022-11-22T16:11:31.489Z,2.97
2022-11-22T16:13:59.858Z,2.95
2022-11-22T16:16:29.272Z,2.80
2022-11-22T16:19:21.442Z,2.78
2022-11-22T16:21:57.527Z,3.00
2022-11-22T16:24:28.406Z,3.10
2022-11-22T16:26:57.973Z,2.38
2022-11-22T16:29:30.299Z,2.70
2022-11-22T16:32:04.119Z,2.60
2022-11-22T16:34:33.543Z,3.10
2022-11-22T16:37:01.463Z,3.20
2022-11-22T16:39:30.256Z,3.13
2022-11-22T16:41:59.244Z,2.95
2022-11-22T16:44:27.353Z,3.65
2022-11-22T16:46:55.216Z,2.50
2022-11-22T16:49:23.693Z,3.00
2022-11-22T16:51:53.147Z,2.78
2022-11-22T16:54:23.847Z,2.80
2022-11-22T16:56:51.757Z,2.67
2022-11-22T16:59:19.678Z,2.90
2022-11-22T17:01:47.566Z,2.53
2022-11-22T17:04:22.879Z,2.58
2022-11-22T17:06:52.615Z,2.20
2022-11-22T17:09:20.582Z,2.50
2022-11-22T17:11:48.767Z,2.70
2022-11-22T17:14:17.583Z,2.72
2022-11-22T17:16:47.013Z,2.25
2022-11-22T17:19:45.361Z,2.60
2022-11-22T17:22:07.301Z,2.63
2022-11-22T17:24:35.720Z,3.17
2022-11-22T17:27:03.599Z,2.92
2022-11-22T17:32:22.734Z,2.60
2022-11-22T17:34:50.611Z,2.38
2022-11-22T17:37:19.873Z,2.50
2022-11-22T17:39:52.153Z,2.38
2022-11-22T17:42:20.336Z,2.53
2022-11-22T17:44:48.320Z,2.70
2022-11-22T17:47:16.182Z,2.60
2022-11-22T17:49:44.271Z,2.78
2022-11-22T17:52:12.180Z,2.50
2022-11-22T17:54:41.520Z,2.88
2022-11-22T17:57:09.386Z,2.58
2022-11-22T17:59:37.312Z,2.35
2022-11-22T18:02:05.202Z,2.33
2022-11-22T18:04:33.308Z,2.42
2022-11-22T18:07:01.372Z,2.75
2022-11-22T18:09:29.553Z,2.60
2022-11-22T18:11:59.063Z,2.80
2022-11-22T18:14:27.686Z,2.08
2022-11-22T18:16:55.603Z,2.53
2022-11-22T18:19:23.481Z,2.60
2022-11-22T18:21:51.413Z,3.30
2022-11-22T18:24:19.344Z,2.90
2022-11-22T18:26:47.224Z,2.50
2022-11-22T18:32:05.934Z,2.60
2022-11-22T18:34:34.187Z,2.60
2022-11-22T18:37:03.835Z,2.80
2022-11-22T18:39:34.143Z,3.15
2022-11-22T18:42:02.536Z,2.33
2022-11-22T18:44:31.832Z,2.47
2022-11-22T18:46:59.801Z,2.63
2022-11-22T18:49:27.751Z,3.13
2022-11-22T18:51:56.095Z,2.70
2022-11-22T18:54:24.228Z,3.05
2022-11-22T18:56:52.617Z,2.60
2022-11-22T18:59:20.529Z,2.80
2022-11-22T19:01:49.892Z,2.60
2022-11-22T19:04:18.208Z,2.85
2022-11-22T19:06:46.342Z,2.70
2022-11-22T19:09:14.444Z,2.50
2022-11-22T19:11:42.415Z,2.53
2022-11-22T19:14:10.528Z,2.40
2022-11-22T19:16:38.559Z,2.50
2022-11-22T19:19:08.741Z,2.53
2022-11-22T19:21:36.660Z,2.78
2022-11-22T19:24:05.448Z,2.47
2022-11-22T19:26:33.621Z,2.38
2022-11-22T19:29:02.716Z,2.80
2022-11-22T19:31:31.517Z,2.47
2022-11-22T19:34:00.248Z,2.03
2022-11-22T19:36:33.653Z,3.13
2022-11-22T19:39:03.687Z,2.42
2022-11-22T19:41:32.166Z,1.88
2022-11-22T19:44:02.076Z,2.30
2022-11-22T19:46:30.904Z,2.25
2022-11-22T19:49:01.136Z,2.38
2022-11-22T19:51:32.369Z,2.50
2022-11-22T19:54:03.029Z,2.72
2022-11-22T19:56:33.077Z,2.30
2022-11-22T19:59:02.920Z,2.63
2022-11-22T20:01:32.421Z,2.47
2022-11-22T20:04:03.639Z,2.28
2022-11-22T20:06:37.719Z,2.33
2022-11-22T20:09:10.424Z,1.90
2022-11-22T20:11:39.779Z,2.13
2022-11-22T20:14:09.396Z,1.98
2022-11-22T20:16:41.438Z,2.42
2022-11-22T20:19:11.435Z,1.98
2022-11-22T20:21:41.385Z,2.28
2022-11-22T20:24:09.914Z,1.98
2022-11-22T20:26:37.915Z,1.85
2022-11-22T20:29:08.330Z,1.50
2022-11-22T20:31:38.298Z,1.73
2022-11-22T20:34:06.362Z,1.70
2022-11-22T20:36:36.056Z,1.50
2022-11-22T20:39:10.479Z,1.58
2022-11-22T20:41:40.045Z,1.60
2022-11-22T20:44:08.146Z,1.60
2022-11-22T20:46:38.671Z,1.38
2022-11-22T20:49:07.168Z,1.58
2022-11-22T20:51:38.694Z,1.70
2022-11-22T20:54:08.678Z,1.65
2022-11-22T20:56:37.271Z,1.45
2022-11-22T20:59:05.312Z,1.63
2022-11-22T21:01:33.474Z,1.30
2022-11-22T21:04:01.448Z,1.50
2022-11-22T21:06:29.449Z,1.63
2022-11-22T21:08:57.556Z,1.40
2022-11-22T21:11:28.883Z,1.35
2022-11-22T21:13:58.540Z,1.48
2022-11-22T21:16:28.225Z,1.40
2022-11-22T21:18:58.298Z,1.50
2022-11-22T21:21:26.955Z,1.08
2022-11-22T21:23:56.292Z,1.33
2022-11-22T21:26:26.950Z,1.30
2022-11-22T21:28:55.101Z,1.50
2022-11-22T21:31:23.914Z,1.40
2022-11-22T21:33:52.664Z,1.40
2022-11-22T21:36:21.394Z,1.52
2022-11-22T21:38:49.450Z,1.23
2022-11-22T21:44:09.241Z,1.17
2022-11-22T21:46:37.528Z,1.40
2022-11-22T21:49:05.499Z,1.30
2022-11-22T21:51:33.420Z,1.30
2022-11-22T21:54:02.370Z,1.17
2022-11-22T21:56:30.616Z,1.10
2022-11-22T21:58:58.535Z,1.23
2022-11-22T22:01:28.107Z,0.90
2022-11-22T22:03:55.961Z,1.10
2022-11-22T22:06:25.129Z,0.82
2022-11-22T22:08:53.078Z,0.80
2022-11-22T22:11:21.043Z,1.00
2022-11-22T22:13:48.977Z,1.38
2022-11-22T22:16:19.030Z,1.00
2022-11-22T22:18:48.775Z,1.20
2022-11-22T22:21:18.727Z,0.90
2022-11-22T22:23:47.219Z,1.20
2022-11-22T22:26:17.128Z,1.00
2022-11-22T22:28:46.179Z,0.82
2022-11-22T22:31:17.499Z,1.08
2022-11-22T22:33:46.706Z,1.10
2022-11-22T22:36:16.151Z,1.25
2022-11-22T22:38:44.222Z,1.00
2022-11-22T22:41:14.277Z,1.13
2022-11-22T22:43:44.362Z,0.95
2022-11-22T22:46:14.211Z,1.05
2022-11-22T22:48:42.941Z,0.90
2022-11-22T22:51:16.668Z,0.82
2022-11-22T22:53:45.432Z,0.80
2022-11-22T22:56:14.789Z,0.77
2022-11-22T22:58:43.172Z,0.90
2022-11-22T23:01:15.024Z,0.80
2022-11-22T23:03:43.089Z,0.77
2022-11-22T23:06:12.827Z,0.70
2022-11-22T23:08:46.742Z,0.70
2022-11-22T23:11:15.447Z,0.88
2022-11-22T23:13:44.136Z,1.02
2022-11-22T23:16:14.124Z,0.98
2022-11-22T23:18:44.067Z,0.80
2022-11-22T23:21:14.082Z,0.70
2022-11-22T23:23:43.484Z,0.70
2022-11-22T23:26:13.511Z,1.10
2022-11-22T23:28:41.439Z,0.80
2022-11-22T23:31:11.633Z,0.93
2022-11-22T23:33:39.639Z,0.93
2022-11-22T23:36:09.739Z,0.80
2022-11-22T23:38:37.793Z,0.77
2022-11-22T23:41:07.114Z,0.95
2022-11-22T23:43:35.114Z,0.70
2022-11-22T23:46:03.045Z,0.80
2022-11-22T23:48:31.047Z,0.80
2022-11-22T23:51:04.012Z,0.88
2022-11-22T23:53:31.918Z,0.63
2022-11-22T23:56:07.469Z,0.75
2022-11-22T23:58:35.539Z,0.75
